Time;durP1;ratioP1;P1;durP2;ratioP2;P2;SDS_P1;SDS_P2;PMS_P1;PMS_P2;Temp;Humidity;BMP_temperature;BMP_pressure;BME280_temperature;BME280_humidity;BME280_pressure;Samples;Min_cycle;Max_cycle;Signal;HPM_P1;HPM_P2
2022/03/25 00:02:45;;;;;;;132.20;61.47;;;;;;;21.77;70.56;98014.47;5021864;28;20140;-66
2022/03/25 00:05:30;;;;;;;133.35;60.90;;;;;;;21.76;70.49;98020.66;5021427;28;20816;-66
2022/03/25 00:08:26;;;;;;;137.35;61.75;;;;;;;21.73;69.35;98022.72;5023753;28;20500;-66
2022/03/25 00:11:01;;;;;;;130.13;62.10;;;;;;;21.64;68.58;98024.31;5008000;28;20140;-66
2022/03/25 00:13:49;;;;;;;145.30;65.15;;;;;;;21.59;67.84;98026.53;5023611;28;20041;-65
2022/03/25 00:16:32;;;;;;;132.68;62.35;;;;;;;21.61;70.40;98035.09;5026185;28;20045;-66
2022/03/25 00:19:20;;;;;;;138.20;63.22;;;;;;;21.61;69.43;98034.25;5028069;28;20355;-66
2022/03/25 00:22:15;;;;;;;142.98;66.30;;;;;;;21.62;69.77;98034.13;5028606;28;20057;-67
2022/03/25 00:25:05;;;;;;;152.98;66.43;;;;;;;21.58;69.19;98040.59;5028883;28;20053;-67
2022/03/25 00:27:47;;;;;;;143.68;66.30;;;;;;;21.53;69.00;98041.94;5027088;28;20050;-66
2022/03/25 00:30:43;;;;;;;148.45;66.03;;;;;;;21.51;69.01;98042.06;5008231;28;20050;-66
2022/03/25 00:33:19;;;;;;;143.57;66.80;;;;;;;21.51;70.45;98046.50;5009454;28;20049;-67
2022/03/25 00:36:19;;;;;;;162.05;69.90;;;;;;;21.52;70.38;98048.97;5031560;28;20653;-66
2022/03/25 00:38:55;;;;;;;166.27;70.28;;;;;;;21.45;69.88;98050.47;5036968;28;20046;-66
2022/03/25 00:41:48;;;;;;;168.90;73.15;;;;;;;21.47;69.50;98053.75;5036030;28;20045;-66
2022/03/25 00:44:31;;;;;;;176.00;73.03;;;;;;;21.42;68.38;98062.97;5026907;28;20779;-66
2022/03/25 00:47:20;;;;;;;170.38;70.78;;;;;;;21.36;66.20;98065.16;5027630;28;20061;-65
2022/03/25 00:50:03;;;;;;;184.70;72.88;;;;;;;21.33;66.00;98068.03;5010774;28;20740;-67
2022/03/25 00:52:58;;;;;;;175.32;70.90;;;;;;;21.34;67.72;98077.56;5010381;28;20053;-66
2022/03/25 00:55:34;;;;;;;178.65;71.88;;;;;;;21.35;67.35;98075.78;5028131;28;20049;-66
2022/03/25 00:58:22;;;;;;;177.68;72.10;;;;;;;21.28;66.69;98078.09;5008503;28;20479;-67
2022/03/25 01:01:04;;;;;;;188.20;75.72;;;;;;;21.30;66.11;98083.19;5010467;28;20156;-66
2022/03/25 01:04:00;;;;;;;185.88;76.75;;;;;;;21.23;63.75;98085.47;5010069;28;20668;-66
2022/03/25 01:06:36;;;;;;;197.10;80.43;;;;;;;21.25;65.54;98088.81;5009302;28;20056;-67
2022/03/25 01:09:25;;;;;;;205.77;81.68;;;;;;;21.22;64.56;98083.84;4990159;28;20068;-66
2022/03/25 01:12:08;;;;;;;182.85;78.60;;;;;;;21.23;64.85;98089.91;5020806;28;20037;-67
2022/03/25 01:14:56;;;;;;;198.32;78.18;;;;;;;21.24;61.42;98089.75;5039197;28;20429;-65
2022/03/25 01:17:38;;;;;;;186.45;75.57;;;;;;;21.31;65.21;98090.91;5044915;28;20114;-66
2022/03/25 01:20:33;;;;;;;185.30;73.93;;;;;;;21.29;63.72;98092.00;5044699;28;20752;-66
2022/03/25 01:23:22;;;;;;;171.85;69.13;;;;;;;21.25;61.92;98096.66;5012656;28;20661;-66
2022/03/25 01:26:12;;;;;;;155.85;61.70;;;;;;;21.29;61.62;98098.09;5024584;28;20845;-66
2022/03/25 01:28:54;;;;;;;153.07;60.85;;;;;;;21.31;59.58;98105.84;5020511;28;20166;-67
2022/03/25 01:31:43;;;;;;;151.95;62.28;;;;;;;21.39;62.47;98104.22;5009023;28;20155;-66
2022/03/25 01:34:33;;;;;;;151.77;62.65;;;;;;;21.45;60.84;98097.66;5025576;28;20822;-66
2022/03/25 01:37:23;;;;;;;168.25;65.07;;;;;;;21.51;59.85;98107.59;5025631;28;20103;-65
2022/03/25 01:40:09;;;;;;;168.10;64.07;;;;;;;21.61;58.91;98113.75;5000996;28;20049;-66
2022/03/25 01:42:57;;;;;;;;;;;;;;;21.65;57.73;98109.91;5010073;28;20053;-62
2022/03/25 01:45:40;;;;;;;177.93;68.70;;;;;;;21.70;57.17;98112.97;5040555;28;19931;-66
2022/03/25 01:48:29;;;;;;;203.10;77.22;;;;;;;21.74;56.86;98122.22;5030091;28;20057;-66
2022/03/25 01:51:10;;;;;;;216.32;82.68;;;;;;;21.83;56.50;98123.25;5046566;28;20060;-67
2022/03/25 01:54:00;;;;;;;240.43;91.60;;;;;;;22.08;55.32;98122.84;5013384;28;20050;-66
2022/03/25 01:57:05;;;;;;;263.88;97.15;;;;;;;22.35;53.79;98130.13;5026896;28;20160;-66
2022/03/25 01:59:54;;;;;;;256.88;96.85;;;;;;;22.64;53.50;98129.38;5008798;28;20042;-66
2022/03/25 02:02:37;;;;;;;257.52;97.43;;;;;;;22.91;56.17;98131.41;5019532;28;20056;-66
2022/03/25 02:05:27;;;;;;;260.23;96.68;;;;;;;23.36;59.52;98127.25;5008701;28;20053;-66
2022/03/25 02:08:09;;;;;;;283.35;104.93;;;;;;;23.48;58.04;98141.94;5006861;28;20049;-66
2022/03/25 02:11:09;;;;;;;285.42;106.63;;;;;;;23.61;56.29;98139.03;5007420;28;20056;-66
2022/03/25 02:13:44;;;;;;;320.90;117.78;;;;;;;23.60;57.20;98146.09;5006519;28;20046;-67
2022/03/25 02:16:42;;;;;;;327.85;120.88;;;;;;;23.75;58.18;98146.47;5023398;28;20565;-67
2022/03/25 02:19:35;;;;;;;340.02;120.53;;;;;;;23.83;56.97;98146.59;5005639;28;20082;-67
2022/03/25 02:22:32;;;;;;;311.98;120.20;;;;;;;23.96;58.27;98155.00;5023102;28;20424;-67
2022/03/25 02:25:11;;;;;;;314.20;114.68;;;;;;;24.05;58.81;98155.94;5005646;28;20355;-66
2022/03/25 02:28:06;;;;;;;272.13;103.93;;;;;;;24.12;56.99;98153.56;5017665;28;20160;-67
2022/03/25 02:30:56;;;;;;;255.77;92.20;;;;;;;24.03;56.06;98152.63;5013536;28;20045;-66
2022/03/25 02:33:53;;;;;;;249.93;86.90;;;;;;;24.00;53.30;98152.91;5023947;28;20060;-67
2022/03/25 02:36:36;;;;;;;225.63;79.88;;;;;;;24.03;53.53;98163.97;5024794;28;20351;-66
2022/03/25 02:39:30;;;;;;;204.20;76.60;;;;;;;24.10;51.86;98173.94;5025547;28;20115;-67
2022/03/25 02:42:08;;;;;;;193.98;70.57;;;;;;;24.17;49.96;98175.88;5008107;28;20805;-67
2022/03/25 02:44:56;;;;;;;177.93;66.00;;;;;;;24.25;49.93;98176.00;5026308;28;20053;-67
2022/03/25 02:47:44;;;;;;;161.45;63.65;;;;;;;24.33;50.71;98181.38;5006185;28;20049;-67
2022/03/25 02:50:32;;;;;;;152.48;58.90;;;;;;;24.34;50.47;98184.84;4988696;28;20061;-67
2022/03/25 02:53:15;;;;;;;121.65;52.33;;;;;;;24.44;52.54;98193.50;5015773;28;20072;-66
2022/03/25 02:56:03;;;;;;;93.85;43.72;;;;;;;24.41;48.76;98196.47;5026214;28;20168;-66
2022/03/25 02:58:45;;;;;;;83.40;36.38;;;;;;;24.64;51.22;98196.91;5025861;28;20056;-66
2022/03/25 03:01:34;;;;;;;73.43;32.85;;;;;;;24.75;48.71;98208.06;5025476;28;20445;-65
2022/03/25 03:04:10;;;;;;;70.28;32.22;;;;;;;24.86;53.63;98206.22;5025005;28;20053;-67
2022/03/25 03:06:58;;;;;;;55.42;27.20;;;;;;;24.96;55.23;98207.03;5025931;28;20068;-66
2022/03/25 03:09:40;;;;;;;59.17;27.15;;;;;;;24.98;53.37;98215.63;5024688;28;20045;-67
2022/03/25 03:12:30;;;;;;;42.63;20.42;;;;;;;24.96;48.12;98217.56;5023703;28;20056;-66
2022/03/25 03:15:13;;;;;;;65.75;32.75;;;;;;;25.05;50.23;98214.06;5025213;28;20073;-66
2022/03/25 03:18:01;;;;;;;52.72;24.25;;;;;;;25.16;50.88;98227.00;5026997;28;20053;-66
2022/03/25 03:20:50;;;;;;;59.58;22.88;;;;;;;25.23;50.49;98222.78;5013593;28;20055;-66
2022/03/25 03:23:38;;;;;;;69.45;29.25;;;;;;;25.28;49.48;98231.09;5015867;28;20095;-66
2022/03/25 03:26:22;;;;;;;77.70;33.40;;;;;;;25.38;50.25;98231.03;4987612;28;20077;-66
2022/03/25 03:29:10;;;;;;;75.15;35.95;;;;;;;25.47;50.94;98238.84;5005116;28;20089;-67
2022/03/25 03:31:52;;;;;;;91.32;37.17;;;;;;;25.50;51.03;98237.72;5005411;28;20155;-66
2022/03/25 03:34:41;;;;;;;81.93;36.58;;;;;;;25.60;49.63;98241.16;4991787;28;20355;-67
2022/03/25 03:37:24;;;;;;;83.55;35.65;;;;;;;25.67;47.83;98242.22;5011277;28;20053;-66
2022/03/25 03:40:14;;;;;;;66.00;32.38;;;;;;;25.76;49.14;98238.66;5011682;28;20049;-66
2022/03/25 03:42:57;;;;;;;;;;;;;;;25.86;47.11;98254.44;5005234;28;20509;-67
2022/03/25 03:45:45;;;;;;;65.05;32.65;;;;;;;26.01;47.80;98254.69;5005852;28;19925;-67
2022/03/25 03:48:27;;;;;;;82.88;33.85;;;;;;;26.07;47.57;98254.06;5004804;28;20057;-67
2022/03/25 03:51:15;;;;;;;68.25;31.90;;;;;;;26.14;45.67;98255.94;5005022;28;20146;-67
2022/03/25 03:53:57;;;;;;;77.97;33.28;;;;;;;26.27;48.65;98251.09;5007964;28;20061;-66
2022/03/25 03:56:46;;;;;;;74.38;34.60;;;;;;;26.54;44.08;98263.34;5007025;28;20050;-66
2022/03/25 03:59:29;;;;;;;90.30;38.33;;;;;;;26.66;44.98;98255.94;5009623;28;20459;-67
2022/03/25 04:02:19;;;;;;;83.78;40.15;;;;;;;26.89;49.84;98264.16;5008201;28;20157;-66
2022/03/25 04:05:01;;;;;;;87.10;41.22;;;;;;;27.07;48.26;98264.09;5007776;28;20100;-66
2022/03/25 04:07:53;;;;;;;78.78;38.17;;;;;;;27.25;46.27;98270.94;5007693;28;20147;-66
2022/03/25 04:10:42;;;;;;;89.07;41.58;;;;;;;27.49;45.87;98264.84;5006930;28;20081;-66
2022/03/25 04:13:24;;;;;;;93.38;41.97;;;;;;;27.70;46.34;98264.41;5010813;28;20202;-66
2022/03/25 04:16:13;;;;;;;95.45;43.70;;;;;;;28.08;51.29;98265.59;5001337;28;20477;-66
2022/03/25 04:18:55;;;;;;;90.53;41.35;;;;;;;28.32;47.37;98262.94;5009884;28;20511;-67
2022/03/25 04:21:52;;;;;;;88.35;40.30;;;;;;;28.73;47.48;98270.81;5012923;28;20061;-67
2022/03/25 04:24:39;;;;;;;69.65;34.13;;;;;;;28.80;42.36;98269.97;5001998;28;20060;-67
2022/03/25 04:27:28;;;;;;;75.35;32.20;;;;;;;29.31;44.28;98279.19;5042428;28;20180;-68
2022/03/25 04:30:10;;;;;;;74.60;29.52;;;;;;;29.39;42.94;98277.50;5020489;28;20140;-67
2022/03/25 04:33:00;;;;;;;60.92;26.40;;;;;;;29.89;42.95;98280.50;5018316;28;20064;-67
2022/03/25 04:35:54;;;;;;;53.33;24.38;;;;;;;30.12;41.56;98280.50;5014713;28;20069;-67
2022/03/25 04:38:42;;;;;;;;;;;;;;;30.52;42.56;98279.31;5028178;28;20064;-67
2022/03/25 04:41:25;;;;;;;46.30;19.88;;;;;;;30.93;40.45;98284.19;5027168;28;19925;-68
2022/03/25 04:44:20;;;;;;;54.50;19.55;;;;;;;30.92;37.72;98282.53;5025602;28;20729;-68
2022/03/25 04:46:56;;;;;;;47.17;20.15;;;;;;;31.18;40.45;98277.56;5027044;28;20660;-67
2022/03/25 04:49:52;;;;;;;46.92;15.50;;;;;;;31.70;39.35;98287.16;5026146;28;20064;-67
2022/03/25 04:52:28;;;;;;;36.20;12.02;;;;;;;31.31;39.24;98288.38;5026012;28;20058;-67
2022/03/25 04:55:17;;;;;;;24.17;10.30;;;;;;;31.67;39.81;98292.91;5025075;28;20041;-68
2022/03/25 04:57:59;;;;;;;27.83;12.02;;;;;;;31.45;36.41;98294.69;5024994;28;20103;-67
2022/03/25 05:00:49;;;;;;;30.83;10.57;;;;;;;32.15;38.86;98292.16;5023610;28;20061;-68
2022/03/25 05:03:40;;;;;;;32.85;10.85;;;;;;;31.98;36.17;98288.06;5024179;28;20100;-68
2022/03/25 05:06:22;;;;;;;26.83;10.18;;;;;;;31.78;38.72;98285.22;5024190;28;20049;-67
2022/03/25 05:09:10;;;;;;;29.02;10.52;;;;;;;32.02;38.22;98286.66;5024009;28;20386;-68
2022/03/25 05:11:53;;;;;;;27.20;10.13;;;;;;;32.20;39.01;98289.72;5025916;28;20135;-68
2022/03/25 05:14:41;;;;;;;29.90;10.38;;;;;;;32.04;35.93;98287.31;5010189;28;20073;-67
2022/03/25 05:17:30;;;;;;;29.85;10.95;;;;;;;32.12;34.45;98289.84;5009086;28;20096;-67
2022/03/25 05:20:12;;;;;;;28.17;10.25;;;;;;;32.61;36.12;98289.00;5011133;28;20136;-68
2022/03/25 05:23:08;;;;;;;38.63;11.45;;;;;;;32.78;38.62;98281.53;5021082;28;20111;-68
2022/03/25 05:25:56;;;;;;;39.65;11.07;;;;;;;32.43;35.22;98283.31;5018541;28;20465;-67
2022/03/25 05:28:50;;;;;;;31.38;11.77;;;;;;;32.68;40.38;98281.84;5015786;28;20490;-66
2022/03/25 05:31:32;;;;;;;37.10;12.70;;;;;;;33.11;35.54;98287.84;5013996;28;20050;-66
2022/03/25 05:34:21;;;;;;;36.75;13.98;;;;;;;32.87;36.12;98289.19;5030778;28;20041;-68
2022/03/25 05:37:03;;;;;;;25.30;11.57;;;;;;;32.78;34.53;98286.88;5024469;28;20041;-67
2022/03/25 05:39:52;;;;;;;29.60;10.93;;;;;;;32.95;37.25;98278.34;5025315;28;20059;-67
2022/03/25 05:42:35;;;;;;;29.90;11.13;;;;;;;33.33;35.88;98286.75;5025375;28;20090;-67
2022/03/25 05:45:27;;;;;;;36.80;10.95;;;;;;;33.36;35.09;98281.00;5026790;28;20098;-67
2022/03/25 05:48:16;;;;;;;52.73;14.80;;;;;;;33.16;39.06;98273.91;5025692;28;20056;-67
2022/03/25 05:51:05;;;;;;;36.92;14.65;;;;;;;33.04;35.41;98276.34;5007036;28;20116;-67
2022/03/25 05:53:47;;;;;;;39.13;15.23;;;;;;;33.34;36.30;98272.38;5023927;28;20080;-67
2022/03/25 05:56:38;;;;;;;41.63;16.10;;;;;;;33.31;38.72;98266.59;5025687;28;20365;-67
2022/03/25 05:59:20;;;;;;;48.25;16.90;;;;;;;33.42;35.43;98268.69;5026095;28;20528;-66
2022/03/25 06:02:09;;;;;;;47.20;17.60;;;;;;;33.86;36.10;98275.34;5026500;28;20068;-68
2022/03/25 06:04:55;;;;;;;55.23;19.27;;;;;;;33.80;33.14;98272.47;5026831;28;20092;-67
2022/03/25 06:07:46;;;;;;;51.97;17.67;;;;;;;33.97;34.30;98272.91;5026578;28;20068;-67
2022/03/25 06:10:28;;;;;;;46.22;15.68;;;;;;;34.17;33.71;98272.91;5024758;28;20057;-66
2022/03/25 06:13:18;;;;;;;41.92;14.63;;;;;;;33.97;33.11;98266.75;5024894;28;20196;-68
2022/03/25 06:15:59;;;;;;;38.53;13.77;;;;;;;34.04;34.34;98270.22;5022415;28;20050;-67
2022/03/25 06:18:49;;;;;;;39.38;13.68;;;;;;;34.00;34.31;98263.66;5017455;28;20057;-67
2022/03/25 06:21:30;;;;;;;40.92;11.52;;;;;;;33.53;34.18;98257.38;5022052;28;20065;-67
2022/03/25 06:24:24;;;;;;;36.33;11.50;;;;;;;33.54;35.45;98266.22;5007027;28;20045;-67
2022/03/25 06:27:00;;;;;;;29.20;11.20;;;;;;;33.78;38.29;98258.50;5023715;28;20041;-68
2022/03/25 06:29:55;;;;;;;48.42;13.80;;;;;;;33.63;34.76;98273.03;5021769;28;20053;-66
2022/03/25 06:32:30;;;;;;;38.38;15.43;;;;;;;33.68;34.72;98267.91;5022133;28;20530;-69
2022/03/25 06:35:18;;;;;;;35.25;13.60;;;;;;;33.71;34.94;98260.31;5015903;28;20046;-67
2022/03/25 06:38:07;;;;;;;48.70;16.65;;;;;;;33.60;35.01;98260.09;5009323;28;20053;-67
2022/03/25 06:40:48;;;;;;;45.97;14.93;;;;;;;33.64;36.43;98251.47;5023631;28;20049;-68
2022/03/25 06:43:36;;;;;;;37.17;15.20;;;;;;;33.91;37.46;98254.19;5036642;28;20720;-66
2022/03/25 06:46:31;;;;;;;45.58;15.95;;;;;;;33.79;36.94;98254.78;5025327;28;20140;-71
2022/03/25 06:49:07;;;;;;;34.95;15.88;;;;;;;33.89;36.66;98248.22;5023627;28;20104;-68
2022/03/25 06:52:03;;;;;;;47.10;15.93;;;;;;;33.73;35.18;98258.28;5036766;28;20473;-70
2022/03/25 06:54:39;;;;;;;40.78;14.88;;;;;;;33.63;36.47;98249.81;5004653;28;20409;-69
2022/03/25 06:57:34;;;;;;;35.50;15.32;;;;;;;33.73;38.09;98250.28;5005010;28;20053;-69
2022/03/25 07:00:12;;;;;;;49.60;15.68;;;;;;;33.47;32.81;98254.72;5005102;28;20872;-70
2022/03/25 07:03:07;;;;;;;47.83;16.65;;;;;;;33.56;36.10;98248.97;5005332;28;20701;-69
2022/03/25 07:05:44;;;;;;;48.13;16.08;;;;;;;33.46;38.07;98247.72;5007179;28;20094;-69
2022/03/25 07:08:35;;;;;;;43.92;15.27;;;;;;;33.62;35.40;98245.50;5005155;28;20046;-69
2022/03/25 07:11:24;;;;;;;37.95;13.98;;;;;;;33.62;36.05;98237.47;5012377;28;20169;-69
2022/03/25 07:14:11;;;;;;;53.97;15.00;;;;;;;33.17;34.33;98230.16;5022304;28;20049;-69
2022/03/25 07:16:53;;;;;;;39.53;13.80;;;;;;;33.58;33.87;98230.91;5022485;28;20057;-69
2022/03/25 07:19:42;;;;;;;41.10;14.90;;;;;;;33.48;34.60;98230.47;5009146;28;20354;-68
2022/03/25 07:22:24;;;;;;;39.75;12.82;;;;;;;33.25;34.36;98219.31;5029747;28;20065;-70
2022/03/25 07:25:14;;;;;;;40.05;14.57;;;;;;;33.12;34.73;98220.09;5043267;28;20056;-68
2022/03/25 07:27:56;;;;;;;34.55;13.90;;;;;;;33.20;35.52;98222.56;5044685;28;20095;-68
2022/03/25 07:30:51;;;;;;;47.67;15.30;;;;;;;33.21;35.80;98218.06;5044003;28;20107;-69
2022/03/25 07:33:27;;;;;;;43.67;15.30;;;;;;;33.30;35.29;98216.84;5027992;28;20642;-69
2022/03/25 07:36:15;;;;;;;40.67;13.65;;;;;;;33.13;34.23;98204.84;5030444;28;20127;-69
2022/03/25 07:38:58;;;;;;;41.92;14.65;;;;;;;33.26;37.69;98204.94;5025130;28;20123;-67
2022/03/25 07:41:46;;;;;;;41.42;14.40;;;;;;;33.38;35.19;98208.66;5024841;28;20053;-68
2022/03/25 07:44:27;;;;;;;42.78;14.10;;;;;;;33.27;38.26;98201.25;5025243;28;20052;-67
2022/03/25 07:47:16;;;;;;;48.10;14.55;;;;;;;33.44;38.07;98197.19;5009674;28;20470;-68
2022/03/25 07:49:59;;;;;;;42.47;13.93;;;;;;;33.39;38.16;98194.28;5025449;28;20442;-68
2022/03/25 07:52:49;;;;;;;34.00;14.82;;;;;;;33.37;37.46;98185.63;5024678;28;20045;-68
2022/03/25 07:55:31;;;;;;;35.58;13.45;;;;;;;33.27;37.64;98185.22;5023507;28;20473;-68
2022/03/25 07:58:19;;;;;;;33.30;12.15;;;;;;;32.95;35.83;98179.56;5024022;28;20079;-67
2022/03/25 08:01:08;;;;;;;41.80;13.85;;;;;;;33.11;37.18;98182.91;5003171;28;20053;-68
2022/03/25 08:03:50;;;;;;;41.28;14.70;;;;;;;33.08;38.22;98180.63;5005595;28;20046;-68
2022/03/25 08:06:38;;;;;;;36.75;13.23;;;;;;;33.05;37.67;98177.31;5001386;28;20064;-68
2022/03/25 08:09:20;;;;;;;35.50;14.18;;;;;;;33.12;36.66;98181.88;5022177;28;20061;-68
2022/03/25 08:12:11;;;;;;;34.67;13.18;;;;;;;32.82;35.92;98173.34;5021385;28;20049;-69
2022/03/25 08:14:52;;;;;;;29.88;12.43;;;;;;;32.84;36.31;98180.13;5018669;28;20353;-67
2022/03/25 08:18:01;;;;;;;33.67;12.38;;;;;;;32.89;37.06;98166.19;5023896;28;20078;-68
2022/03/25 08:20:46;;;;;;;40.47;10.18;;;;;;;32.79;34.56;98166.56;5023992;28;20103;-69
2022/03/25 08:29:46;;;;;;;34.70;9.85;;;;;;;32.52;36.68;98159.44;5023765;28;20049;-68
2022/03/25 08:32:28;;;;;;;34.28;9.93;;;;;;;32.38;35.09;98155.91;5021392;28;20088;-68
2022/03/25 08:35:24;;;;;;;35.85;10.88;;;;;;;32.47;36.86;98153.88;5014866;28;20099;-67
2022/03/25 08:38:06;;;;;;;38.10;10.63;;;;;;;32.54;34.78;98144.88;5006394;28;20046;-68
2022/03/25 08:41:06;;;;;;;31.00;10.45;;;;;;;32.65;35.82;98146.16;5032556;28;20049;-67
2022/03/25 08:43:43;;;;;;;40.47;12.23;;;;;;;32.70;37.03;98141.09;5044129;28;20045;-68
2022/03/25 08:46:32;;;;;;;37.42;10.75;;;;;;;32.68;36.73;98143.94;5026884;28;20037;-67
2022/03/25 08:49:13;;;;;;;38.90;10.65;;;;;;;32.68;33.99;98148.44;5022904;28;20759;-67
2022/03/25 08:52:07;;;;;;;27.67;11.13;;;;;;;32.70;36.88;98130.41;5016047;28;20208;-68
2022/03/25 08:54:43;;;;;;;29.73;11.07;;;;;;;32.71;36.81;98126.72;5000204;28;20145;-67
2022/03/25 08:57:33;;;;;;;35.47;12.55;;;;;;;32.67;36.89;98133.44;5011163;28;20115;-67
2022/03/25 09:00:20;;;;;;;38.40;10.30;;;;;;;32.65;36.10;98132.81;5018026;28;20507;-67
2022/03/25 09:03:09;;;;;;;27.85;9.18;;;;;;;32.48;35.32;98119.00;5018459;28;20054;-68
2022/03/25 09:05:51;;;;;;;34.63;9.68;;;;;;;32.52;38.05;98122.09;5018012;28;20071;-68
2022/03/25 09:08:48;;;;;;;31.45;9.35;;;;;;;32.38;37.69;98126.56;5023622;28;20240;-68
2022/03/25 09:11:24;;;;;;;32.47;9.30;;;;;;;32.37;38.20;98114.25;5025061;28;20056;-68
2022/03/25 09:14:14;;;;;;;35.97;10.20;;;;;;;32.21;40.06;98110.06;5015115;28;20057;-69
2022/03/25 09:16:55;;;;;;;30.20;10.15;;;;;;;32.22;38.98;98116.22;5012437;28;20061;-68
2022/03/25 09:19:44;;;;;;;26.55;9.45;;;;;;;32.19;37.30;98114.75;5014631;28;20041;-69
2022/03/25 09:22:26;;;;;;;34.58;10.55;;;;;;;32.05;37.67;98105.03;5014222;28;20060;-67
2022/03/25 09:25:25;;;;;;;39.53;11.27;;;;;;;32.10;39.16;98101.75;5014369;28;20374;-69
2022/03/25 09:28:02;;;;;;;27.67;10.95;;;;;;;32.08;38.09;98098.47;5021044;28;20131;-66
2022/03/25 09:30:51;;;;;;;37.38;11.27;;;;;;;32.07;37.58;98104.81;5021741;28;20634;-67
2022/03/25 09:33:34;;;;;;;44.95;11.30;;;;;;;32.06;37.75;98096.00;5021890;28;20064;-66
2022/03/25 09:36:23;;;;;;;35.75;10.77;;;;;;;32.07;39.22;98091.50;5016098;28;20057;-67
2022/03/25 09:39:05;;;;;;;37.40;11.98;;;;;;;32.02;39.56;98097.41;5017019;28;20045;-66
2022/03/25 09:41:54;;;;;;;32.80;10.95;;;;;;;31.93;38.33;98096.72;5023644;28;20119;-67
2022/03/25 09:44:39;;;;;;;36.28;11.23;;;;;;;31.90;38.49;98088.31;5021931;28;20049;-66
2022/03/25 09:47:30;;;;;;;29.75;10.90;;;;;;;31.95;39.37;98088.53;5019313;28;20049;-66
2022/03/25 09:50:14;;;;;;;31.20;10.20;;;;;;;31.91;39.12;98095.31;5015156;28;20041;-67
2022/03/25 09:53:03;;;;;;;35.38;9.93;;;;;;;31.87;39.22;98089.53;5006342;28;20076;-67
2022/03/25 09:55:52;;;;;;;44.75;11.98;;;;;;;31.84;40.19;98091.78;5023294;28;20151;-67
2022/03/25 09:58:40;;;;;;;29.17;11.50;;;;;;;31.81;39.15;98092.16;5023998;28;20059;-66
2022/03/25 10:01:23;;;;;;;33.75;10.98;;;;;;;31.84;39.38;98086.44;5028850;28;20041;-67
2022/03/25 10:04:46;;;;;;;34.60;12.45;;;;;;;31.78;40.93;98081.88;5023561;28;20751;-67
2022/03/25 10:07:45;;;;;;;38.67;11.98;;;;;;;31.82;39.18;98088.47;5020146;28;20065;-68
2022/03/25 10:10:34;;;;;;;24.27;10.43;;;;;;;31.86;37.97;98085.22;5030860;28;20056;-67
2022/03/25 10:13:24;;;;;;;29.48;10.13;;;;;;;31.79;40.27;98084.34;5035687;28;20044;-68
2022/03/25 10:16:05;;;;;;;35.75;10.95;;;;;;;31.76;40.43;98090.09;5036097;28;20048;-68
2022/03/25 10:18:59;;;;;;;30.15;10.68;;;;;;;31.69;40.80;98080.41;5030530;28;20053;-68
2022/03/25 10:22:08;;;;;;;41.85;11.80;;;;;;;31.66;39.74;98088.78;5006246;28;20060;-68
2022/03/25 10:25:03;;;;;;;38.65;12.85;;;;;;;31.61;38.65;98080.53;5002981;28;20104;-67
2022/03/25 10:27:38;;;;;;;33.45;10.60;;;;;;;31.64;39.23;98069.50;5002473;28;20069;-67
2022/03/25 10:30:40;;;;;;;28.80;10.85;;;;;;;31.65;40.08;98076.47;5004404;28;20053;-67
2022/03/25 10:33:30;;;;;;;33.13;10.88;;;;;;;31.61;40.18;98075.19;5005477;28;20049;-67
2022/03/25 10:36:21;;;;;;;26.25;9.75;;;;;;;31.59;40.47;98077.22;5006712;28;20049;-67
2022/03/25 10:39:16;;;;;;;39.25;10.60;;;;;;;31.54;38.65;98078.59;5005216;28;20610;-67
2022/03/25 10:42:06;;;;;;;38.83;10.43;;;;;;;31.55;38.94;98074.94;5004760;28;20053;-68
2022/03/25 10:44:48;;;;;;;33.25;10.38;;;;;;;31.49;40.55;98075.72;5006647;28;20042;-68
2022/03/25 10:47:42;;;;;;;35.15;10.80;;;;;;;31.44;39.19;98072.81;5003389;28;20058;-68
2022/03/25 10:50:19;;;;;;;36.38;10.88;;;;;;;31.42;39.80;98072.19;5004760;28;20049;-67
2022/03/25 10:53:11;;;;;;;52.08;10.38;;;;;;;31.42;39.27;98071.34;5000327;28;20046;-67
2022/03/25 10:56:05;;;;;;;32.17;11.02;;;;;;;31.38;40.48;98070.91;4995658;28;20042;-67
2022/03/25 10:58:55;;;;;;;31.33;10.65;;;;;;;31.36;40.35;98064.16;5007852;28;20116;-67
2022/03/25 11:01:37;;;;;;;31.60;9.85;;;;;;;31.33;39.33;98068.00;5005240;28;20129;-68
2022/03/25 11:04:27;;;;;;;29.70;10.30;;;;;;;31.27;39.16;98063.47;5005197;28;20041;-67
2022/03/25 11:07:08;;;;;;;28.45;9.55;;;;;;;31.21;39.14;98066.88;4991847;28;20038;-67
2022/03/25 11:09:57;;;;;;;34.33;10.38;;;;;;;31.17;39.26;98063.78;5005358;28;20056;-68
2022/03/25 11:12:53;;;;;;;30.17;10.05;;;;;;;31.12;40.57;98071.53;5008717;28;20558;-67
2022/03/25 11:15:37;;;;;;;26.58;10.20;;;;;;;31.03;39.88;98066.50;5005698;28;20054;-67
2022/03/25 11:18:27;;;;;;;34.15;9.63;;;;;;;30.96;39.91;98066.44;5012076;28;20057;-67
2022/03/25 11:21:09;;;;;;;34.20;9.85;;;;;;;30.91;39.07;98068.81;5006948;28;20132;-69
2022/03/25 11:24:06;;;;;;;26.42;9.52;;;;;;;30.90;39.55;98064.50;5019560;28;20473;-67
2022/03/25 11:26:56;;;;;;;36.78;12.52;;;;;;;30.87;40.91;98066.75;5033866;28;20323;-67
2022/03/25 11:29:50;;;;;;;27.77;8.60;;;;;;;30.83;39.78;98070.78;5034325;28;20055;-68
2022/03/25 11:32:32;;;;;;;36.72;10.82;;;;;;;30.78;41.04;98072.19;5020645;28;20042;-67
2022/03/25 11:35:26;;;;;;;35.60;8.38;;;;;;;30.74;40.83;98070.91;5035988;28;20108;-68
2022/03/25 11:38:25;;;;;;;31.73;9.98;;;;;;;30.69;40.09;98070.66;5040279;28;20060;-67
2022/03/25 11:41:21;;;;;;;27.92;8.90;;;;;;;30.66;37.59;98073.69;5033201;28;20046;-69
2022/03/25 11:44:25;;;;;;;30.75;7.80;;;;;;;30.59;36.76;98078.09;5033093;28;20093;-67
2022/03/25 11:47:03;;;;;;;28.17;8.52;;;;;;;30.51;37.16;98083.53;5033388;28;20520;-67
2022/03/25 11:50:38;;;;;;;35.95;8.15;;;;;;;30.46;37.57;98077.09;5033555;28;20037;-68
2022/03/25 11:53:13;;;;;;;39.45;7.75;;;;;;;30.40;36.17;98079.50;5029741;28;20069;-67
2022/03/25 11:56:16;;;;;;;26.98;8.07;;;;;;;30.38;36.11;98084.19;5029735;28;20048;-67
2022/03/25 11:58:54;;;;;;;25.50;7.65;;;;;;;30.37;36.80;98084.34;5028951;28;20412;-68
2022/03/25 12:01:43;;;;;;;25.90;8.15;;;;;;;30.29;36.92;98085.28;5028979;28;20053;-68
2022/03/25 12:04:39;;;;;;;33.83;8.85;;;;;;;30.29;37.82;98089.78;5029818;28;20061;-67
2022/03/25 12:07:34;;;;;;;27.23;7.75;;;;;;;30.21;38.50;98090.72;5033614;28;20212;-67
2022/03/25 12:10:46;;;;;;;36.70;9.90;;;;;;;30.15;38.19;98087.97;5028591;28;20045;-68
2022/03/25 12:13:52;;;;;;;35.03;10.07;;;;;;;30.08;38.22;98089.72;5036859;28;20096;-67
2022/03/25 12:16:52;;;;;;;31.77;8.93;;;;;;;29.97;40.17;98083.84;5033958;28;20115;-69
2022/03/25 12:19:53;;;;;;;33.47;10.10;;;;;;;29.91;39.71;98086.38;5038070;28;20049;-68
2022/03/25 12:22:33;;;;;;;23.20;9.75;;;;;;;29.78;42.13;98087.00;5035742;28;20160;-68
2022/03/25 12:25:29;;;;;;;46.38;12.07;;;;;;;29.65;42.12;98087.63;5035108;28;20040;-67
2022/03/25 12:28:04;;;;;;;33.25;11.63;;;;;;;29.62;43.67;98088.00;5037977;28;20392;-67
2022/03/25 12:31:03;;;;;;;31.17;10.23;;;;;;;29.55;41.10;98092.38;5037464;28;20053;-67
2022/03/25 12:33:38;;;;;;;42.22;11.55;;;;;;;29.45;41.77;98093.66;5042535;28;20045;-67
2022/03/25 12:36:42;;;;;;;36.20;11.73;;;;;;;29.36;43.29;98092.06;5026931;28;20044;-66
2022/03/25 12:39:24;;;;;;;46.03;13.07;;;;;;;29.27;44.03;98088.63;5031304;28;20049;-67
2022/03/25 12:42:20;;;;;;;39.78;13.30;;;;;;;29.17;44.39;98091.53;5005888;28;20071;-67
2022/03/25 12:44:56;;;;;;;42.05;12.20;;;;;;;29.09;43.86;98101.38;5021030;28;20110;-68
2022/03/25 12:47:50;;;;;;;34.40;14.07;;;;;;;29.04;44.22;98095.78;5037587;28;20136;-66
2022/03/25 12:50:32;;;;;;;52.55;13.85;;;;;;;28.96;43.83;98099.31;5037771;28;20132;-66
2022/03/25 12:53:27;;;;;;;37.95;12.45;;;;;;;28.88;44.72;98102.84;5033591;28;20510;-67
2022/03/25 12:56:09;;;;;;;39.28;15.18;;;;;;;28.76;46.20;98106.88;5033243;28;20072;-65
2022/03/25 12:58:59;;;;;;;63.78;22.27;;;;;;;28.71;45.49;98113.69;5040411;28;20429;-70